Terminal Aerodrome Forecast
Issued by NWS

Current Version | Previous Version | Graphics & Text | Print | Product List | Glossary On
Versions: 1 2 3 4 5 6 7 8 9 10 11 12 13 14 15 16 17 18 19 20 21 22 23 24
000
FTUS41 KRLX 140500
TAFCKB
TAF
KCKB 140520Z 1406/1506 00000KT 6SM BR FEW015
     FM140800 00000KT 3SM BR FEW250
     FM140900 00000KT 1/4SM FG VV001
     FM141300 00000KT 3SM BR SKC
     FM141400 00000KT P6SM FEW040=

USA.gov is the U.S. government's official web portal to all federal, state and local government web resources and services.